Nikiski, Alaska
Current Conditions -  °F | °C
As of 5:53 PM on Monday 20 Oct 2014 (Local Time) from PAEN Reporting Station
Scattered Clouds Scattered Clouds  
Wind Chill: 37°   Ceiling: Unl
Heat Index: 37°   Visibility: 10mi
Dew Point: 31°   Wind: 3mph
Humidity: 79%   Direction: 130°SE
Pressure: 29.12"   Gusts: NA
Location:  60.72°N, 151.38°W
Report Text: PAEN 210153Z 13003KT 10SM SCT023 03/M01 A2912 RMK AO2 SLP863 T00281006
Loading
Personal Weather Stations






























Interactive Weather Map
Tropical Storm Tracking
New forecast layout! Learn more

10-Day Weather Forecast

Advertisements
Track Severe Weather on mobile